Terminal Aerodrome Forecast
Issued by NWS

Home | Current Version | Previous Version | Text Only | Print | Product List | Glossary On
Versions: 1 2 3 4 5 6 7 8 9 10 11 12 13 14
056
FTUS43 KMPX 161738
TAFRNH
TAF
KRNH 161738Z 1618/1718 11003KT P6SM SCT010 OVC250
     FM162100 09003KT 6SM BR BKN010 OVC120
     FM170100 07003KT 5SM BR OVC009
      TEMPO 1701/1704 2SM -FZDZ BR OVC007
     FM170400 04003KT 6SM -SN BR OVC011
     FM170800 36004KT 4SM BR OVC015
     FM171500 33004KT P6SM BKN020=

USA.gov is the U.S. government's official web portal to all federal, state and local government web resources and services.